Time;durP1;ratioP1;P1;durP2;ratioP2;P2;SDS_P1;SDS_P2;PMS_P1;PMS_P2;Temp;Humidity;BMP_temperature;BMP_pressure;BME280_temperature;BME280_humidity;BME280_pressure;Samples;Min_cycle;Max_cycle;Signal;HPM_P1;HPM_P2
2022/12/03 00:01:54;;;;;;;33.88;19.23;;;;;;;;;;5093510;28;20203;-66
2022/12/03 00:04:22;;;;;;;37.92;21.73;;;;;;;;;;5093574;28;20197;-66
2022/12/03 00:06:49;;;;;;;37.28;21.95;;;;;;;;;;5093203;28;20281;-67
2022/12/03 00:09:16;;;;;;;43.63;22.05;;;;;;;;;;5093170;28;20191;-66
2022/12/03 00:11:43;;;;;;;40.63;23.85;;;;;;;;;;5093612;28;20226;-66
2022/12/03 00:14:12;;;;;;;37.53;22.27;;;;;;;;;;5093270;28;20203;-66
2022/12/03 00:16:39;;;;;;;37.92;21.40;;;;;;;;;;5093040;28;20210;-67
2022/12/03 00:19:07;;;;;;;41.55;21.80;;;;;;;;;;5093262;28;20287;-66
2022/12/03 00:21:34;;;;;;;43.40;24.23;;;;;;;;;;5093039;28;20205;-66
2022/12/03 00:24:01;;;;;;;40.53;22.08;;;;;;;;;;5093224;28;20196;-66
2022/12/03 00:26:28;;;;;;;41.45;22.30;;;;;;;;;;5093262;28;20290;-66
2022/12/03 00:28:56;;;;;;;40.15;24.45;;;;;;;;;;5092852;28;20210;-67
2022/12/03 00:31:25;;;;;;;40.35;22.88;;;;;;;;;;5093350;28;20227;-66
2022/12/03 00:33:52;;;;;;;41.92;23.60;;;;;;;;;;5092833;28;20203;-67
2022/12/03 00:36:19;;;;;;;37.28;21.25;;;;;;;;;;5093197;28;20200;-67
2022/12/03 00:38:46;;;;;;;42.00;23.33;;;;;;;;;;5093116;28;20197;-66
2022/12/03 00:41:13;;;;;;;41.13;23.98;;;;;;;;;;5093381;28;20200;-66
2022/12/03 00:43:41;;;;;;;40.78;23.00;;;;;;;;;;5092730;28;20198;-66
2022/12/03 00:46:08;;;;;;;39.38;22.67;;;;;;;;;;5093066;28;20193;-66
2022/12/03 00:48:36;;;;;;;40.78;22.67;;;;;;;;;;5092642;28;20192;-66
2022/12/03 00:51:04;;;;;;;41.67;23.30;;;;;;;;;;5092989;28;20224;-65
2022/12/03 00:53:31;;;;;;;36.88;22.98;;;;;;;;;;5092998;28;20282;-66
2022/12/03 00:56:00;;;;;;;39.25;21.65;;;;;;;;;;5092778;28;20199;-65
2022/12/03 00:58:27;;;;;;;33.00;20.35;;;;;;;;;;5092838;28;20195;-67
2022/12/03 01:00:54;;;;;;;38.97;21.48;;;;;;;;;;5092983;28;20222;-67
2022/12/03 01:03:21;;;;;;;42.53;21.98;;;;;;;;;;5093077;28;20197;-67
2022/12/03 01:05:50;;;;;;;52.40;24.30;;;;;;;;;;5093757;28;20197;-67
2022/12/03 01:08:17;;;;;;;36.08;21.10;;;;;;;;;;5096437;28;20533;-66
2022/12/03 01:10:44;;;;;;;42.55;22.15;;;;;;;;;;5096377;28;20246;-67
2022/12/03 01:13:11;;;;;;;38.28;21.48;;;;;;;;;;5096322;28;20201;-67
2022/12/03 01:15:39;;;;;;;41.90;20.90;;;;;;;;;;5096714;28;20201;-66
2022/12/03 01:18:06;;;;;;;31.80;20.15;;;;;;;;;;5096503;28;20586;-66
2022/12/03 01:20:35;;;;;;;42.45;20.95;;;;;;;;;;5096505;28;20202;-66
2022/12/03 01:23:03;;;;;;;40.42;21.65;;;;;;;;;;5095853;28;20221;-66
2022/12/03 01:25:30;;;;;;;34.50;20.25;;;;;;;;;;5096161;28;20196;-66
2022/12/03 01:27:58;;;;;;;38.85;22.98;;;;;;;;;;5096090;28;20207;-67
2022/12/03 01:30:25;;;;;;;36.80;22.02;;;;;;;;;;5096024;28;20203;-66
2022/12/03 01:32:51;;;;;;;34.97;19.98;;;;;;;;;;5095702;28;20203;-67
2022/12/03 01:35:18;;;;;;;35.58;20.52;;;;;;;;;;5095607;28;20200;-67
2022/12/03 01:37:45;;;;;;;36.67;20.70;;;;;;;;;;5096534;28;20202;-67
2022/12/03 01:40:16;;;;;;;35.97;19.08;;;;;;;;;;5095827;28;20197;-66
2022/12/03 01:42:44;;;;;;;36.38;18.13;;;;;;;;;;5095526;28;20234;-66
2022/12/03 01:45:16;;;;;;;35.05;17.17;;;;;;;;;;5095327;28;20200;-66
2022/12/03 01:47:43;;;;;;;31.70;17.35;;;;;;;;;;5096537;28;20183;-66
2022/12/03 01:50:15;;;;;;;36.50;17.65;;;;;;;;;;5095290;28;20201;-66
2022/12/03 01:52:43;;;;;;;26.92;16.40;;;;;;;;;;5095645;28;20209;-66
2022/12/03 01:55:13;;;;;;;31.20;18.73;;;;;;;;;;5095646;28;20195;-66
2022/12/03 01:57:42;;;;;;;30.80;16.67;;;;;;;;;;5095758;28;20215;-66
2022/12/03 02:00:13;;;;;;;29.65;17.27;;;;;;;;;;5095395;28;20204;-66
2022/12/03 02:02:40;;;;;;;30.08;16.30;;;;;;;;;;5095436;28;20203;-67
2022/12/03 02:05:15;;;;;;;33.38;16.55;;;;;;;;;;5095370;28;20230;-66
2022/12/03 02:07:42;;;;;;;28.80;15.57;;;;;;;;;;5095132;28;20190;-66
2022/12/03 02:10:12;;;;;;;29.00;17.70;;;;;;;;;;5095231;28;20200;-66
2022/12/03 02:12:41;;;;;;;31.98;18.95;;;;;;;;;;5094759;28;20212;-66
2022/12/03 02:15:11;;;;;;;28.67;17.63;;;;;;;;;;5095114;28;20205;-67
2022/12/03 02:17:38;;;;;;;38.60;17.98;;;;;;;;;;5094747;28;20199;-66
2022/12/03 02:20:06;;;;;;;38.15;18.42;;;;;;;;;;5094960;28;20272;-67
2022/12/03 02:22:37;;;;;;;34.58;17.08;;;;;;;;;;5095222;28;20580;-67
2022/12/03 02:25:09;;;;;;;39.63;20.08;;;;;;;;;;5095200;28;20276;-66
2022/12/03 02:27:36;;;;;;;38.17;20.65;;;;;;;;;;5095093;28;20202;-66
2022/12/03 02:30:04;;;;;;;34.55;18.88;;;;;;;;;;5094840;28;20199;-66
2022/12/03 02:32:31;;;;;;;31.00;17.70;;;;;;;;;;5094472;28;20226;-66
2022/12/03 02:34:58;;;;;;;36.75;17.73;;;;;;;;;;5094712;28;20217;-66
2022/12/03 02:37:28;;;;;;;36.08;18.50;;;;;;;;;;5095149;28;20202;-66
2022/12/03 02:39:57;;;;;;;30.20;17.88;;;;;;;;;;5094960;28;20630;-67
2022/12/03 02:42:34;;;;;;;45.20;19.73;;;;;;;;;;5094090;28;20313;-66
2022/12/03 02:45:02;;;;;;;42.10;21.25;;;;;;;;;;5094606;28;20636;-66
2022/12/03 02:47:30;;;;;;;40.03;19.77;;;;;;;;;;5094666;28;20196;-66
2022/12/03 02:49:58;;;;;;;46.72;20.30;;;;;;;;;;5094178;28;20645;-65
2022/12/03 02:52:25;;;;;;;37.83;19.92;;;;;;;;;;5094785;28;20230;-66
2022/12/03 02:54:52;;;;;;;42.15;20.33;;;;;;;;;;5094015;28;20196;-66
2022/12/03 02:57:19;;;;;;;43.05;21.02;;;;;;;;;;5094377;28;20202;-66
2022/12/03 02:59:48;;;;;;;41.30;21.88;;;;;;;;;;5093934;28;20196;-66
2022/12/03 03:02:15;;;;;;;43.97;22.17;;;;;;;;;;5094335;28;20606;-66
2022/12/03 03:04:43;;;;;;;43.53;21.48;;;;;;;;;;5094157;28;20201;-66
2022/12/03 03:07:10;;;;;;;40.30;20.70;;;;;;;;;;5094203;28;20204;-66
2022/12/03 03:09:38;;;;;;;45.78;23.42;;;;;;;;;;5093758;28;20207;-66
2022/12/03 03:12:05;;;;;;;43.10;21.17;;;;;;;;;;5094431;28;20237;-67
2022/12/03 03:14:33;;;;;;;40.70;20.98;;;;;;;;;;5094258;28;20562;-66
2022/12/03 03:17:01;;;;;;;41.63;21.38;;;;;;;;;;5093727;28;20712;-66
2022/12/03 03:19:29;;;;;;;42.72;20.13;;;;;;;;;;5093681;28;20310;-66
2022/12/03 03:21:56;;;;;;;44.30;20.85;;;;;;;;;;5093981;28;20201;-67
2022/12/03 03:24:24;;;;;;;42.80;19.25;;;;;;;;;;5094106;28;20196;-67
2022/12/03 03:26:51;;;;;;;32.95;18.17;;;;;;;;;;5094467;28;20202;-67
2022/12/03 03:29:18;;;;;;;39.85;18.63;;;;;;;;;;5093550;28;20652;-67
2022/12/03 03:31:46;;;;;;;39.25;20.48;;;;;;;;;;5093637;28;20253;-66
2022/12/03 03:34:16;;;;;;;38.58;19.45;;;;;;;;;;5093528;28;20191;-67
2022/12/03 03:36:43;;;;;;;39.95;19.20;;;;;;;;;;5093743;28;20198;-67
2022/12/03 03:39:11;;;;;;;37.60;21.38;;;;;;;;;;5093852;28;20207;-67
2022/12/03 03:41:38;;;;;;;36.78;18.88;;;;;;;;;;5093570;28;20222;-66
2022/12/03 03:44:06;;;;;;;41.50;21.20;;;;;;;;;;5093469;28;20293;-66
2022/12/03 03:46:34;;;;;;;41.60;20.58;;;;;;;;;;5093658;28;20205;-68
2022/12/03 03:49:02;;;;;;;44.97;21.85;;;;;;;;;;5093694;28;20208;-66
2022/12/03 03:51:31;;;;;;;43.15;20.33;;;;;;;;;;5093177;28;20225;-66
2022/12/03 03:53:58;;;;;;;48.38;21.40;;;;;;;;;;5090859;28;20196;-66
2022/12/03 03:56:25;;;;;;;46.83;23.88;;;;;;;;;;5073485;28;20195;-66
2022/12/03 03:58:52;;;;;;;49.70;22.38;;;;;;;;;;5073050;28;20261;-66
2022/12/03 04:01:19;;;;;;;48.35;21.23;;;;;;;;;;5073326;28;20561;-66
2022/12/03 04:03:47;;;;;;;40.90;21.23;;;;;;;;;;5073293;28;20207;-66
2022/12/03 04:06:14;;;;;;;41.22;21.67;;;;;;;;;;5072925;28;20196;-66
2022/12/03 04:08:42;;;;;;;47.15;23.60;;;;;;;;;;5073271;28;20572;-66
2022/12/03 04:13:55;;;;;;;51.20;23.45;;;;;;;;;;5073077;28;20696;-67
2022/12/03 04:16:22;;;;;;;48.25;24.10;;;;;;;;;;5073448;28;20195;-67
2022/12/03 04:18:49;;;;;;;45.33;22.45;;;;;;;;;;5073186;28;20303;-67
2022/12/03 04:24:04;;;;;;;46.55;21.92;;;;;;;;;;5072937;28;20210;-66
2022/12/03 04:29:16;;;;;;;50.13;22.83;;;;;;;;;;5072883;28;20642;-65
2022/12/03 04:37:12;;;;;;;53.10;22.90;;;;;;;;;;5072679;28;20250;-65
2022/12/03 04:39:41;;;;;;;45.63;23.08;;;;;;;;;;5072929;28;20207;-66
2022/12/03 04:42:08;;;;;;;49.53;24.70;;;;;;;;;;5075469;28;20698;-66
2022/12/03 04:44:36;;;;;;;45.45;20.63;;;;;;;;;;5076770;28;20192;-65
2022/12/03 04:47:04;;;;;;;48.33;21.52;;;;;;;;;;5076614;28;20196;-66
2022/12/03 04:49:31;;;;;;;55.40;25.60;;;;;;;;;;5076294;28;20283;-66
2022/12/03 04:51:59;;;;;;;48.30;22.48;;;;;;;;;;5075860;28;20721;-66
2022/12/03 04:54:26;;;;;;;50.05;23.50;;;;;;;;;;5075558;28;20236;-65
2022/12/03 04:56:55;;;;;;;59.95;22.48;;;;;;;;;;5075753;28;20195;-65
2022/12/03 04:59:22;;;;;;;55.75;23.58;;;;;;;;;;5075541;28;20666;-66
2022/12/03 05:01:49;;;;;;;53.20;21.17;;;;;;;;;;5075766;28;20565;-66
2022/12/03 05:04:17;;;;;;;51.03;23.42;;;;;;;;;;5075837;28;20196;-66
2022/12/03 05:06:44;;;;;;;51.55;21.80;;;;;;;;;;5075747;28;20217;-65
2022/12/03 05:09:12;;;;;;;48.88;20.45;;;;;;;;;;5075223;28;20202;-66
2022/12/03 05:11:39;;;;;;;50.08;19.85;;;;;;;;;;5075130;28;20196;-66
2022/12/03 05:14:07;;;;;;;43.08;20.45;;;;;;;;;;5075381;28;20203;-66
2022/12/03 05:16:35;;;;;;;48.83;20.88;;;;;;;;;;5075516;28;20293;-66
2022/12/03 05:19:02;;;;;;;40.35;20.13;;;;;;;;;;5077338;28;20197;-66
2022/12/03 05:21:28;;;;;;;55.83;23.50;;;;;;;;;;5095504;28;20203;-66
2022/12/03 05:23:55;;;;;;;54.47;22.83;;;;;;;;;;5095713;28;20206;-66
2022/12/03 05:26:22;;;;;;;48.05;21.90;;;;;;;;;;5095509;28;20203;-66
2022/12/03 05:28:50;;;;;;;46.17;20.45;;;;;;;;;;5095438;28;20191;-65
2022/12/03 05:31:19;;;;;;;50.60;22.17;;;;;;;;;;5095533;28;20218;-65
2022/12/03 05:33:46;;;;;;;44.17;21.60;;;;;;;;;;5095839;28;20297;-65
2022/12/03 05:36:13;;;;;;;56.90;22.38;;;;;;;;;;5096227;28;20201;-66
2022/12/03 05:38:40;;;;;;;47.53;21.83;;;;;;;;;;5095871;28;20199;-66
2022/12/03 05:42:52;;;;;;;45.78;20.08;;;;;;;;;;5095403;28;20213;-65
2022/12/03 05:43:54;;;;;;;45.08;21.30;;;;;;;;;;5095336;28;20194;-66
2022/12/03 05:46:22;;;;;;;52.72;21.17;;;;;;;;;;5095384;28;20199;-66
2022/12/03 05:48:49;;;;;;;43.20;21.15;;;;;;;;;;5095169;28;20281;-66
2022/12/03 05:51:16;;;;;;;46.33;19.08;;;;;;;;;;5094840;28;20197;-66
2022/12/03 05:53:44;;;;;;;42.13;19.73;;;;;;;;;;5095380;28;20218;-66
2022/12/03 05:56:11;;;;;;;47.92;19.88;;;;;;;;;;5095620;28;20203;-66
2022/12/03 05:58:38;;;;;;;44.35;20.10;;;;;;;;;;5095338;28;20200;-65
2022/12/03 06:01:05;;;;;;;39.38;19.40;;;;;;;;;;5095013;28;20193;-65
2022/12/03 06:03:34;;;;;;;41.42;21.05;;;;;;;;;;5095188;28;20200;-65
2022/12/03 06:06:01;;;;;;;40.28;19.02;;;;;;;;;;5095394;28;20567;-65
2022/12/03 06:08:28;;;;;;;39.72;19.02;;;;;;;;;;5094924;28;20269;-65
2022/12/03 06:10:55;;;;;;;41.50;18.65;;;;;;;;;;5094553;28;20213;-65
2022/12/03 06:13:23;;;;;;;38.28;19.25;;;;;;;;;;5094932;28;20254;-66
2022/12/03 06:15:50;;;;;;;40.80;19.15;;;;;;;;;;5094836;28;20203;-66
2022/12/03 06:18:17;;;;;;;43.63;19.13;;;;;;;;;;5095327;28;20648;-65
2022/12/03 06:20:45;;;;;;;35.42;17.45;;;;;;;;;;5095081;28;20206;-66
2022/12/03 06:23:13;;;;;;;40.72;21.92;;;;;;;;;;5094804;28;20206;-65
2022/12/03 06:25:40;;;;;;;40.88;20.38;;;;;;;;;;5094464;28;20658;-65
2022/12/03 06:28:07;;;;;;;40.58;19.73;;;;;;;;;;5094085;28;20682;-65
2022/12/03 06:30:34;;;;;;;37.92;19.05;;;;;;;;;;5094542;28;20194;-66
2022/12/03 06:33:02;;;;;;;41.85;20.63;;;;;;;;;;5094036;28;20224;-67
2022/12/03 06:35:29;;;;;;;42.67;19.50;;;;;;;;;;5094443;28;20195;-67
2022/12/03 06:37:57;;;;;;;41.65;21.45;;;;;;;;;;5094661;28;20608;-66
2022/12/03 06:40:25;;;;;;;44.85;18.48;;;;;;;;;;5094693;28;20192;-66
2022/12/03 06:42:52;;;;;;;35.17;18.00;;;;;;;;;;5094595;28;20239;-66
2022/12/03 06:45:19;;;;;;;38.15;17.33;;;;;;;;;;5094479;28;20200;-66
2022/12/03 06:47:46;;;;;;;41.58;21.83;;;;;;;;;;5094004;28;20198;-66
2022/12/03 06:50:14;;;;;;;39.30;17.95;;;;;;;;;;5093915;28;20195;-66
2022/12/03 06:52:41;;;;;;;45.72;20.33;;;;;;;;;;5093842;28;20215;-66
2022/12/03 06:55:10;;;;;;;39.28;20.30;;;;;;;;;;5094364;28;20563;-66
2022/12/03 06:57:37;;;;;;;40.05;20.48;;;;;;;;;;5094117;28;20206;-66
2022/12/03 07:00:07;;;;;;;36.15;18.40;;;;;;;;;;5094531;28;20199;-66
2022/12/03 07:02:34;;;;;;;36.85;19.02;;;;;;;;;;5094239;28;20563;-65
2022/12/03 07:05:02;;;;;;;39.75;19.80;;;;;;;;;;5094248;28;20296;-65
2022/12/03 07:07:29;;;;;;;42.75;19.27;;;;;;;;;;5093893;28;20203;-66
2022/12/03 07:09:56;;;;;;;36.25;19.27;;;;;;;;;;5093922;28;20191;-65
2022/12/03 07:12:25;;;;;;;45.67;18.63;;;;;;;;;;5093747;28;20219;-66
2022/12/03 07:14:52;;;;;;;43.13;19.27;;;;;;;;;;5094077;28;20213;-65
2022/12/03 07:17:19;;;;;;;47.33;22.33;;;;;;;;;;5094100;28;20193;-66
2022/12/03 07:19:46;;;;;;;48.83;21.60;;;;;;;;;;5093670;28;20286;-66
2022/12/03 07:22:13;;;;;;;46.85;20.08;;;;;;;;;;5093624;28;20200;-66
2022/12/03 07:24:41;;;;;;;49.20;24.70;;;;;;;;;;5093847;28;20203;-66
2022/12/03 07:27:08;;;;;;;46.10;20.67;;;;;;;;;;5093614;28;20199;-67
2022/12/03 07:29:36;;;;;;;40.15;19.60;;;;;;;;;;5093732;28;20639;-66
2022/12/03 07:32:03;;;;;;;47.35;23.05;;;;;;;;;;5094007;28;20213;-66
2022/12/03 07:34:31;;;;;;;49.45;22.02;;;;;;;;;;5093370;28;20674;-66
2022/12/03 07:36:58;;;;;;;46.95;22.33;;;;;;;;;;5093834;28;20579;-65
2022/12/03 07:39:25;;;;;;;39.90;20.40;;;;;;;;;;5093948;28;20194;-65
2022/12/03 07:41:52;;;;;;;42.13;19.83;;;;;;;;;;5083092;28;20334;-66
2022/12/03 07:44:19;;;;;;;42.72;19.38;;;;;;;;;;5072427;28;20290;-65
2022/12/03 07:46:48;;;;;;;50.05;22.45;;;;;;;;;;5072856;28;20202;-66
2022/12/03 07:49:15;;;;;;;47.20;21.80;;;;;;;;;;5073092;28;20198;-66
2022/12/03 07:51:45;;;;;;;44.05;20.35;;;;;;;;;;5073565;28;20198;-65
2022/12/03 07:54:12;;;;;;;43.08;21.25;;;;;;;;;;5073070;28;20227;-66
2022/12/03 07:56:39;;;;;;;42.92;21.65;;;;;;;;;;5072835;28;20293;-65
2022/12/03 07:59:06;;;;;;;41.47;19.95;;;;;;;;;;5072991;28;20247;-65
2022/12/03 08:01:33;;;;;;;44.08;20.02;;;;;;;;;;5073005;28;20197;-66
2022/12/03 08:04:02;;;;;;;42.75;20.83;;;;;;;;;;5072384;28;20203;-66
2022/12/03 08:06:29;;;;;;;44.20;21.77;;;;;;;;;;5072714;28;20291;-66
2022/12/03 08:08:56;;;;;;;37.35;20.75;;;;;;;;;;5072998;28;20279;-65
2022/12/03 08:11:23;;;;;;;42.08;20.15;;;;;;;;;;5078313;28;20202;-65
2022/12/03 08:13:51;;;;;;;49.05;20.75;;;;;;;;;;5093466;28;20244;-66
2022/12/03 08:16:19;;;;;;;47.83;22.58;;;;;;;;;;5096677;28;20196;-65
2022/12/03 08:18:47;;;;;;;40.80;22.10;;;;;;;;;;5097226;28;20190;-66
2022/12/03 08:21:17;;;;;;;43.08;19.20;;;;;;;;;;5097127;28;20220;-66
2022/12/03 08:23:45;;;;;;;42.53;20.80;;;;;;;;;;5096887;28;20269;-66
2022/12/03 08:26:16;;;;;;;49.15;21.58;;;;;;;;;;5096920;28;20293;-66
2022/12/03 08:28:43;;;;;;;39.35;19.52;;;;;;;;;;5096671;28;20193;-66
2022/12/03 08:31:18;;;;;;;40.33;21.85;;;;;;;;;;5097069;28;20540;-66
2022/12/03 08:33:46;;;;;;;39.45;19.75;;;;;;;;;;5097171;28;20252;-65
2022/12/03 08:36:14;;;;;;;39.92;22.52;;;;;;;;;;5097011;28;20205;-65
2022/12/03 08:38:43;;;;;;;46.38;19.83;;;;;;;;;;5096656;28;20649;-66
2022/12/03 08:41:13;;;;;;;44.13;21.00;;;;;;;;;;5096387;28;20218;-66
2022/12/03 08:43:42;;;;;;;43.17;22.23;;;;;;;;;;5096489;28;20187;-66
2022/12/03 08:46:12;;;;;;;43.92;21.27;;;;;;;;;;5096030;28;20720;-65
2022/12/03 08:48:39;;;;;;;47.03;20.88;;;;;;;;;;5096209;28;20205;-65
2022/12/03 08:51:12;;;;;;;48.20;21.08;;;;;;;;;;5096552;28;20198;-66
2022/12/03 08:53:44;;;;;;;53.55;22.70;;;;;;;;;;5097089;28;20210;-65
2022/12/03 08:56:20;;;;;;;48.63;23.15;;;;;;;;;;5096290;28;20194;-66
2022/12/03 08:58:48;;;;;;;46.53;22.42;;;;;;;;;;5096763;28;20229;-66
2022/12/03 09:01:27;;;;;;;42.50;23.15;;;;;;;;;;5095975;28;20198;-66
2022/12/03 09:03:55;;;;;;;44.58;19.92;;;;;;;;;;5096117;28;20188;-66
2022/12/03 09:06:22;;;;;;;47.72;23.95;;;;;;;;;;5096038;28;20195;-66
2022/12/03 09:08:50;;;;;;;46.40;20.67;;;;;;;;;;5096313;28;20212;-65
2022/12/03 09:11:18;;;;;;;40.60;21.45;;;;;;;;;;5095980;28;20199;-65
2022/12/03 09:13:45;;;;;;;49.40;22.55;;;;;;;;;;5096526;28;20694;-66
2022/12/03 09:16:13;;;;;;;48.10;24.02;;;;;;;;;;5096180;28;20583;-66
2022/12/03 09:18:40;;;;;;;48.95;22.98;;;;;;;;;;5096233;28;20226;-66
2022/12/03 09:21:07;;;;;;;41.55;23.30;;;;;;;;;;5096060;28;20194;-66
2022/12/03 09:23:34;;;;;;;43.45;22.67;;;;;;;;;;5095444;28;20195;-66
2022/12/03 09:26:01;;;;;;;43.00;21.33;;;;;;;;;;5095260;28;20220;-66
2022/12/03 09:28:30;;;;;;;47.20;21.63;;;;;;;;;;5095678;28;20205;-66
2022/12/03 09:30:57;;;;;;;44.00;21.08;;;;;;;;;;5096004;28;20191;-65
2022/12/03 09:33:24;;;;;;;49.58;24.77;;;;;;;;;;5095458;28;20315;-66
2022/12/03 09:35:52;;;;;;;52.15;21.73;;;;;;;;;;5095835;28;20198;-66
2022/12/03 09:38:19;;;;;;;45.13;22.42;;;;;;;;;;5095614;28;20656;-66
2022/12/03 09:40:46;;;;;;;47.22;22.83;;;;;;;;;;5095897;28;20286;-66
2022/12/03 09:43:13;;;;;;;40.58;23.40;;;;;;;;;;5094914;28;20323;-65
2022/12/03 09:45:42;;;;;;;44.17;21.40;;;;;;;;;;5094877;28;20202;-66
2022/12/03 09:48:09;;;;;;;44.97;21.60;;;;;;;;;;5095545;28;20595;-66
2022/12/03 09:50:40;;;;;;;40.17;19.88;;;;;;;;;;5095247;28;20195;-66
2022/12/03 09:53:07;;;;;;;45.17;21.92;;;;;;;;;;5095537;28;20208;-66
2022/12/03 09:55:34;;;;;;;50.83;25.10;;;;;;;;;;5095488;28;20206;-66
2022/12/03 09:58:02;;;;;;;46.90;22.90;;;;;;;;;;5095543;28;20196;-66
2022/12/03 10:00:30;;;;;;;44.22;20.00;;;;;;;;;;5095580;28;20195;-66
2022/12/03 10:03:02;;;;;;;47.30;22.08;;;;;;;;;;5094967;28;20195;-65
2022/12/03 10:05:29;;;;;;;46.30;21.70;;;;;;;;;;5095117;28;20188;-65
2022/12/03 10:08:01;;;;;;;50.92;22.45;;;;;;;;;;5095088;28;20214;-66
2022/12/03 10:10:28;;;;;;;49.85;23.15;;;;;;;;;;5095412;28;20190;-66
2022/12/03 10:12:55;;;;;;;48.13;27.35;;;;;;;;;;5094607;28;20195;-66
2022/12/03 10:15:24;;;;;;;55.92;27.60;;;;;;;;;;5094947;28;20205;-66
2022/12/03 10:17:53;;;;;;;53.58;22.95;;;;;;;;;;5095059;28;20194;-69
2022/12/03 10:20:23;;;;;;;46.08;23.08;;;;;;;;;;5085957;28;20195;-69
2022/12/03 10:22:50;;;;;;;50.63;22.63;;;;;;;;;;5074723;28;20202;-67
2022/12/03 10:25:19;;;;;;;56.30;27.38;;;;;;;;;;5074008;28;20196;-67
2022/12/03 10:27:55;;;;;;;50.78;22.67;;;;;;;;;;5074348;28;20200;-67
2022/12/03 10:30:25;;;;;;;43.58;20.05;;;;;;;;;;5074495;28;20548;-67
2022/12/03 10:32:52;;;;;;;44.72;22.25;;;;;;;;;;5074258;28;20203;-67
2022/12/03 10:35:22;;;;;;;39.13;19.65;;;;;;;;;;5074535;28;20552;-67
2022/12/03 10:37:59;;;;;;;37.53;19.88;;;;;;;;;;5074296;28;20200;-66
2022/12/03 10:40:28;;;;;;;40.80;19.48;;;;;;;;;;5074083;28;20190;-66
2022/12/03 10:43:13;;;;;;;39.88;21.20;;;;;;;;;;5074208;28;20322;-66
2022/12/03 10:45:40;;;;;;;50.40;22.00;;;;;;;;;;5074049;28;20186;-66
2022/12/03 10:48:12;;;;;;;45.28;19.85;;;;;;;;;;5074378;28;20563;-66
2022/12/03 10:50:46;;;;;;;40.80;19.50;;;;;;;;;;5074489;28;20207;-67
2022/12/03 10:53:14;;;;;;;44.10;20.23;;;;;;;;;;5074339;28;20548;-67
2022/12/03 10:55:42;;;;;;;38.53;19.48;;;;;;;;;;5074201;28;20200;-66
2022/12/03 10:58:16;;;;;;;42.00;19.02;;;;;;;;;;5074477;28;20606;-66
2022/12/03 11:00:43;;;;;;;43.50;20.77;;;;;;;;;;5074164;28;20230;-66
2022/12/03 11:03:17;;;;;;;39.88;19.55;;;;;;;;;;5074606;28;20566;-67
2022/12/03 11:05:46;;;;;;;42.92;20.40;;;;;;;;;;5074357;28;20212;-67
2022/12/03 11:08:16;;;;;;;44.83;21.10;;;;;;;;;;5074074;28;20199;-66
2022/12/03 11:10:43;;;;;;;39.80;19.77;;;;;;;;;;5073617;28;20723;-67
2022/12/03 11:13:30;;;;;;;40.13;19.50;;;;;;;;;;5073462;28;20196;-67
2022/12/03 11:15:58;;;;;;;46.53;20.77;;;;;;;;;;5073519;28;20196;-66
2022/12/03 11:18:43;;;;;;;34.33;18.52;;;;;;;;;;5074020;28;20196;-67
2022/12/03 11:21:12;;;;;;;32.90;17.02;;;;;;;;;;5073920;28;20286;-67
2022/12/03 11:23:58;;;;;;;40.25;17.10;;;;;;;;;;5073426;28;20690;-67
2022/12/03 11:26:44;;;;;;;38.33;18.65;;;;;;;;;;5074401;28;20205;-67
2022/12/03 11:29:13;;;;;;;46.33;22.20;;;;;;;;;;5073867;28;20192;-67
2022/12/03 11:31:42;;;;;;;37.13;19.38;;;;;;;;;;5073913;28;20197;-66
2022/12/03 11:34:28;;;;;;;35.75;18.13;;;;;;;;;;5073557;28;20212;-66
2022/12/03 11:37:16;;;;;;;38.60;19.75;;;;;;;;;;5073258;28;20202;-66
2022/12/03 11:40:00;;;;;;;39.55;19.48;;;;;;;;;;5073222;28;20244;-67
2022/12/03 11:42:39;;;;;;;45.63;21.25;;;;;;;;;;5072843;28;20227;-66
2022/12/03 11:45:16;;;;;;;38.95;18.95;;;;;;;;;;5074213;28;20190;-66
2022/12/03 11:47:44;;;;;;;41.08;19.77;;;;;;;;;;5073732;28;20200;-67
2022/12/03 11:50:20;;;;;;;42.40;19.92;;;;;;;;;;5072781;28;20194;-66
2022/12/03 11:52:49;;;;;;;36.50;18.67;;;;;;;;;;5073720;28;20184;-66
2022/12/03 11:55:20;;;;;;;43.03;22.55;;;;;;;;;;5072427;28;20218;-67
2022/12/03 11:57:47;;;;;;;43.40;22.02;;;;;;;;;;5072418;28;20182;-67
2022/12/03 12:00:18;;;;;;;47.40;21.77;;;;;;;;;;5072863;28;20202;-66
2022/12/03 12:02:45;;;;;;;42.35;20.15;;;;;;;;;;5073059;28;20232;-66
2022/12/03 12:05:21;;;;;;;46.85;21.10;;;;;;;;;;5072779;28;20215;-66
2022/12/03 12:07:48;;;;;;;41.17;20.80;;;;;;;;;;5073010;28;20290;-66
2022/12/03 12:10:15;;;;;;;49.15;22.98;;;;;;;;;;5073397;28;20206;-67
2022/12/03 12:12:44;;;;;;;49.20;22.13;;;;;;;;;;5073306;28;20200;-66
2022/12/03 12:15:30;;;;;;;51.70;21.63;;;;;;;;;;5073047;28;20230;-67
2022/12/03 12:17:57;;;;;;;48.17;21.02;;;;;;;;;;5072749;28;20676;-66
2022/12/03 12:20:26;;;;;;;40.22;20.90;;;;;;;;;;5072849;28;20192;-66
2022/12/03 12:22:53;;;;;;;40.38;20.95;;;;;;;;;;5072278;28;20207;-67
2022/12/03 12:25:47;;;;;;;43.78;20.70;;;;;;;;;;5087791;28;20206;-66
2022/12/03 12:28:16;;;;;;;42.85;23.58;;;;;;;;;;5057439;28;20282;-66
2022/12/03 12:30:43;;;;;;;43.38;20.75;;;;;;;;;;5093162;28;20205;-68
2022/12/03 12:33:21;;;;;;;48.35;21.33;;;;;;;;;;5092689;28;20728;-66
2022/12/03 12:35:49;;;;;;;37.22;21.05;;;;;;;;;;5092700;28;20205;-66
2022/12/03 12:38:17;;;;;;;45.63;23.65;;;;;;;;;;5092733;28;20681;-66
2022/12/03 12:40:45;;;;;;;44.58;22.20;;;;;;;;;;5092575;28;20194;-67
2022/12/03 12:43:21;;;;;;;49.08;20.17;;;;;;;;;;5092939;28;20239;-66
2022/12/03 12:45:48;;;;;;;45.33;21.15;;;;;;;;;;5092448;28;20185;-66
2022/12/03 12:48:17;;;;;;;47.97;25.65;;;;;;;;;;5092587;28;20226;-66
2022/12/03 12:50:46;;;;;;;44.40;23.20;;;;;;;;;;5092596;28;20203;-66
2022/12/03 12:53:17;;;;;;;40.55;21.65;;;;;;;;;;5092283;28;20207;-66
2022/12/03 12:55:44;;;;;;;44.22;21.05;;;;;;;;;;5092683;28;20207;-66
2022/12/03 12:58:13;;;;;;;45.60;21.80;;;;;;;;;;5093109;28;20202;-67
2022/12/03 13:00:42;;;;;;;43.28;20.85;;;;;;;;;;5071843;28;20274;-67
2022/12/03 13:03:12;;;;;;;45.58;21.38;;;;;;;;;;5074692;28;20283;-66
2022/12/03 13:05:40;;;;;;;51.08;23.67;;;;;;;;;;5075663;28;20213;-66
2022/12/03 13:08:19;;;;;;;43.80;22.67;;;;;;;;;;5076012;28;20195;-67
2022/12/03 13:10:46;;;;;;;38.45;21.15;;;;;;;;;;5076113;28;20277;-67
2022/12/03 13:13:15;;;;;;;36.53;20.60;;;;;;;;;;5075576;28;20730;-66
2022/12/03 13:15:47;;;;;;;40.00;20.67;;;;;;;;;;5076108;28;20237;-67
2022/12/03 13:18:35;;;;;;;45.60;23.02;;;;;;;;;;5076412;28;20270;-67
2022/12/03 13:21:12;;;;;;;43.33;22.73;;;;;;;;;;5070800;28;20201;-66
2022/12/03 13:23:40;;;;;;;41.03;20.58;;;;;;;;;;5075573;28;20590;-67
2022/12/03 13:26:15;;;;;;;46.92;22.55;;;;;;;;;;5075653;28;20287;-67
2022/12/03 13:28:42;;;;;;;49.55;22.70;;;;;;;;;;5076031;28;20183;-67
2022/12/03 13:31:21;;;;;;;49.83;21.25;;;;;;;;;;5075668;28;20201;-67
2022/12/03 13:33:48;;;;;;;49.25;23.38;;;;;;;;;;5075431;28;20187;-67
2022/12/03 13:36:17;;;;;;;48.75;23.83;;;;;;;;;;5076013;28;20285;-67
2022/12/03 13:38:45;;;;;;;43.80;21.58;;;;;;;;;;5075887;28;20196;-67
2022/12/03 13:42:37;;;;;;;61.55;26.65;;;;;;;;;;5075494;28;20203;-66
2022/12/03 13:44:02;;;;;;;42.85;22.98;;;;;;;;;;5075375;28;20203;-66
2022/12/03 13:46:35;;;;;;;43.88;22.65;;;;;;;;;;5075375;28;20287;-66
2022/12/03 13:49:02;;;;;;;44.55;23.63;;;;;;;;;;5075541;28;20191;-66
2022/12/03 13:51:32;;;;;;;52.03;24.35;;;;;;;;;;5075844;28;20205;-66
2022/12/03 13:53:59;;;;;;;44.38;22.10;;;;;;;;;;5075629;28;20287;-66
2022/12/03 13:56:27;;;;;;;51.60;22.55;;;;;;;;;;5075952;28;20191;-67
2022/12/03 13:58:56;;;;;;;44.42;20.70;;;;;;;;;;5075381;28;20556;-66
2022/12/03 14:01:23;;;;;;;42.60;22.95;;;;;;;;;;5075692;28;20200;-66
2022/12/03 14:03:51;;;;;;;51.15;21.60;;;;;;;;;;5075368;28;20199;-67
2022/12/03 14:06:19;;;;;;;49.20;22.23;;;;;;;;;;5075242;28;20561;-67
2022/12/03 14:08:46;;;;;;;47.35;23.77;;;;;;;;;;5075159;28;20200;-66
2022/12/03 14:12:24;;;;;;;44.47;21.05;;;;;;;;;;5074689;28;20648;-66
2022/12/03 14:14:01;;;;;;;45.92;21.58;;;;;;;;;;5074174;28;20226;-66
2022/12/03 14:16:28;;;;;;;52.58;23.80;;;;;;;;;;5075407;28;20527;-66
2022/12/03 14:18:57;;;;;;;49.95;23.08;;;;;;;;;;5074993;28;20283;-66
2022/12/03 14:21:24;;;;;;;49.88;23.00;;;;;;;;;;5074614;28;20210;-67
2022/12/03 14:23:51;;;;;;;47.28;21.42;;;;;;;;;;5074587;28;20646;-67
2022/12/03 14:26:18;;;;;;;50.35;24.02;;;;;;;;;;5074771;28;20564;-67
2022/12/03 14:28:45;;;;;;;41.08;21.35;;;;;;;;;;5075098;28;20201;-67
2022/12/03 14:31:13;;;;;;;46.83;22.88;;;;;;;;;;5075413;28;20205;-67
2022/12/03 14:33:40;;;;;;;51.78;23.27;;;;;;;;;;5074773;28;20197;-67
2022/12/03 14:36:09;;;;;;;54.05;27.50;;;;;;;;;;5075348;28;20220;-66
2022/12/03 14:38:36;;;;;;;59.13;26.27;;;;;;;;;;5075002;28;20202;-68
2022/12/03 14:42:11;;;;;;;58.00;29.80;;;;;;;;;;5074425;28;20200;-67